createdAt,value
2023-06-25T00:01:13.910Z,93070.91
2023-06-25T00:02:45.598Z,93074.88
2023-06-25T00:04:17.257Z,93073.72
2023-06-25T00:05:49.548Z,93074.00
2023-06-25T00:07:21.927Z,93062.22
2023-06-25T00:08:53.543Z,93060.59
2023-06-25T00:10:25.087Z,93054.22
2023-06-25T00:11:56.673Z,93058.31
2023-06-25T00:13:28.455Z,93055.56
2023-06-25T00:15:00.085Z,93051.75
2023-06-25T00:16:31.724Z,93048.66
2023-06-25T00:18:03.782Z,93055.31
2023-06-25T00:19:35.482Z,93057.34
2023-06-25T00:21:07.115Z,93060.81
2023-06-25T00:22:38.860Z,93055.75
2023-06-25T00:24:10.455Z,93063.94
2023-06-25T00:25:42.054Z,93059.69
2023-06-25T00:27:13.616Z,93061.75
2023-06-25T00:28:46.231Z,93067.66
2023-06-25T00:30:17.884Z,93070.78
2023-06-25T00:31:50.413Z,93080.91
2023-06-25T00:33:22.729Z,93074.63
2023-06-25T00:34:58.867Z,93071.88
2023-06-25T00:36:37.712Z,93075.78
2023-06-25T00:38:09.392Z,93073.03
2023-06-25T00:39:40.996Z,93077.78
2023-06-25T00:41:13.012Z,93078.16
2023-06-25T00:42:45.338Z,93082.09
2023-06-25T00:44:17.117Z,93084.81
2023-06-25T00:45:48.971Z,93078.50
2023-06-25T00:47:20.888Z,93087.06
2023-06-25T00:48:53.543Z,93079.59
2023-06-25T00:50:25.898Z,93081.91
2023-06-25T00:51:57.595Z,93083.06
2023-06-25T00:53:30.929Z,93082.28
2023-06-25T00:55:02.870Z,93081.13
2023-06-25T00:56:35.156Z,93094.38
2023-06-25T00:58:07.561Z,93096.28
2023-06-25T00:59:40.198Z,93092.34
2023-06-25T01:01:18.639Z,93095.00
2023-06-25T01:03:05.231Z,93090.22
2023-06-25T01:04:38.684Z,93089.84
2023-06-25T01:06:30.530Z,93094.09
2023-06-25T01:08:05.039Z,93096.03
2023-06-25T01:09:36.618Z,93092.06
2023-06-25T01:11:11.951Z,93097.84
2023-06-25T01:12:44.527Z,93104.34
2023-06-25T01:14:16.242Z,93100.47
2023-06-25T01:15:48.506Z,93101.53
2023-06-25T01:17:20.358Z,93093.00
2023-06-25T01:19:03.887Z,93104.34
2023-06-25T01:20:39.584Z,93100.47
2023-06-25T01:22:11.440Z,93101.00
2023-06-25T01:23:42.940Z,93110.41
2023-06-25T01:25:14.568Z,93102.28
2023-06-25T01:26:56.369Z,93106.59
2023-06-25T01:28:29.532Z,93106.59
2023-06-25T01:30:02.387Z,93110.09
2023-06-25T01:31:34.376Z,93103.94
2023-06-25T01:33:06.058Z,93108.59
2023-06-25T01:34:37.925Z,93110.91
2023-06-25T01:36:09.577Z,93110.09
2023-06-25T01:37:41.207Z,93105.00
2023-06-25T01:39:13.056Z,93102.19
2023-06-25T01:40:44.695Z,93115.84
2023-06-25T01:42:16.629Z,93113.91
2023-06-25T01:43:49.026Z,93122.09
2023-06-25T01:45:21.123Z,93111.19
2023-06-25T01:46:53.541Z,93117.44
2023-06-25T01:48:25.415Z,93111.53
2023-06-25T01:49:57.061Z,93110.75
2023-06-25T01:51:29.394Z,93107.63
2023-06-25T01:53:01.086Z,93110.75
2023-06-25T01:54:32.711Z,93117.78
2023-06-25T01:56:04.524Z,93123.25
2023-06-25T01:57:36.382Z,93118.91
2023-06-25T01:59:07.995Z,93116.78
2023-06-25T02:00:39.998Z,93114.78
2023-06-25T02:02:11.573Z,93117.91
2023-06-25T02:03:43.335Z,93118.34
2023-06-25T02:05:15.060Z,93122.66
2023-06-25T02:06:47.023Z,93125.41
2023-06-25T02:08:18.616Z,93127.34
2023-06-25T02:09:50.327Z,93137.09
2023-06-25T02:11:22.226Z,93123.81
2023-06-25T02:12:54.247Z,93128.56
2023-06-25T02:14:26.024Z,93125.81
2023-06-25T02:15:58.035Z,93130.50
2023-06-25T02:17:29.756Z,93127.34
2023-06-25T02:19:01.553Z,93122.97
2023-06-25T02:20:33.790Z,93131.88
2023-06-25T02:22:05.608Z,93130.28
2023-06-25T02:23:37.796Z,93132.22
2023-06-25T02:25:09.499Z,93120.88
2023-06-25T02:26:41.590Z,93118.88
2023-06-25T02:28:13.287Z,93121.97
2023-06-25T02:29:44.864Z,93125.78
2023-06-25T02:31:16.913Z,93122.69
2023-06-25T02:32:48.662Z,93136.25
2023-06-25T02:34:20.719Z,93129.56
2023-06-25T02:35:52.538Z,93129.53
2023-06-25T02:37:24.276Z,93120.81
2023-06-25T02:38:56.497Z,93124.28
2023-06-25T02:40:30.836Z,93125.44
2023-06-25T02:42:02.365Z,93134.75
2023-06-25T02:43:34.122Z,93126.22
2023-06-25T02:45:06.186Z,93131.25
2023-06-25T02:46:38.147Z,93133.19
2023-06-25T02:48:10.463Z,93135.13
2023-06-25T02:49:42.251Z,93133.44
2023-06-25T02:51:14.083Z,93126.72
2023-06-25T02:52:45.765Z,93125.41
2023-06-25T02:54:17.679Z,93127.69
2023-06-25T02:55:49.858Z,93127.63
2023-06-25T02:57:31.578Z,93120.59
2023-06-25T02:59:03.100Z,93129.72
2023-06-25T03:00:34.690Z,93123.19
2023-06-25T03:02:06.406Z,93120.13
2023-06-25T03:03:38.281Z,93117.03
2023-06-25T03:05:09.971Z,93116.16
2023-06-25T03:06:41.782Z,93110.19
2023-06-25T03:08:13.418Z,93113.66
2023-06-25T03:09:45.062Z,93100.72
2023-06-25T03:11:16.851Z,93104.09
2023-06-25T03:12:48.684Z,93105.16
2023-06-25T03:14:34.128Z,93108.91
2023-06-25T03:16:06.971Z,93108.84
2023-06-25T03:17:38.688Z,93107.19
2023-06-25T03:19:10.368Z,93105.59
2023-06-25T03:20:41.933Z,93103.66
2023-06-25T03:22:13.726Z,93107.63
2023-06-25T03:23:45.345Z,93100.72
2023-06-25T03:25:16.990Z,93104.72
2023-06-25T03:26:48.571Z,93094.25
2023-06-25T03:28:20.941Z,93101.63
2023-06-25T03:29:53.201Z,93096.06
2023-06-25T03:31:25.525Z,93102.66
2023-06-25T03:32:57.339Z,93095.75
2023-06-25T03:34:29.678Z,93095.47
2023-06-25T03:36:01.395Z,93090.88
2023-06-25T03:37:32.975Z,93102.66
2023-06-25T03:39:04.614Z,93106.31
2023-06-25T03:40:36.517Z,93103.66
2023-06-25T03:42:08.265Z,93100.22
2023-06-25T03:43:40.043Z,93105.75
2023-06-25T03:45:11.658Z,93100.00
2023-06-25T03:46:43.387Z,93095.00
2023-06-25T03:48:15.163Z,93091.56
2023-06-25T03:49:47.044Z,93091.97
2023-06-25T03:51:18.728Z,93095.00
2023-06-25T03:52:50.390Z,93091.38
2023-06-25T03:54:22.041Z,93101.03
2023-06-25T03:55:53.931Z,93093.09
2023-06-25T03:57:25.794Z,93092.31
2023-06-25T03:58:57.594Z,93082.63
2023-06-25T04:00:29.207Z,93087.03
2023-06-25T04:02:01.035Z,93089.81
2023-06-25T04:03:32.762Z,93089.03
2023-06-25T04:05:05.387Z,93081.56
2023-06-25T04:06:36.974Z,93074.47
2023-06-25T04:08:08.738Z,93065.75
2023-06-25T04:09:40.340Z,93061.47
2023-06-25T04:11:12.724Z,93065.75
2023-06-25T04:12:44.270Z,93068.56
2023-06-25T04:14:15.875Z,93065.91
2023-06-25T04:15:47.567Z,93062.47
2023-06-25T04:17:19.239Z,93054.34
2023-06-25T04:18:50.915Z,93050.91
2023-06-25T04:20:26.584Z,93048.19
2023-06-25T04:21:58.274Z,93046.59
2023-06-25T04:23:29.938Z,93039.88
2023-06-25T04:25:01.677Z,93031.97
2023-06-25T04:26:33.338Z,93032.63
2023-06-25T04:28:05.309Z,93029.81
2023-06-25T04:29:36.853Z,93025.53
2023-06-25T04:31:08.895Z,93028.25
2023-06-25T04:32:40.548Z,93021.22
2023-06-25T04:34:12.286Z,93023.59
2023-06-25T04:35:44.165Z,93013.75
2023-06-25T04:37:15.905Z,93010.97
2023-06-25T04:38:47.671Z,93006.56
2023-06-25T04:40:20.056Z,93008.50
2023-06-25T04:41:52.061Z,92999.19
2023-06-25T04:43:23.739Z,92988.28
2023-06-25T04:44:55.591Z,92993.75
2023-06-25T04:46:28.752Z,92986.78
2023-06-25T04:48:00.445Z,92984.50
2023-06-25T04:49:32.157Z,92975.53
2023-06-25T04:51:04.645Z,92977.09
2023-06-25T04:52:39.363Z,92982.59
2023-06-25T04:54:11.123Z,92989.38
2023-06-25T04:55:42.814Z,92994.22
2023-06-25T04:57:14.806Z,92999.09
2023-06-25T04:58:46.462Z,93007.75
2023-06-25T05:00:18.086Z,93013.00
2023-06-25T05:01:49.849Z,93024.47
2023-06-25T05:03:21.701Z,93034.59
2023-06-25T05:04:53.404Z,93043.91
2023-06-25T05:06:25.321Z,93048.09
2023-06-25T05:07:57.238Z,93048.09
2023-06-25T05:09:29.187Z,93050.84
2023-06-25T05:11:00.812Z,93045.00
2023-06-25T05:12:33.028Z,93048.91
2023-06-25T05:14:05.487Z,93060.22
2023-06-25T05:15:37.599Z,93064.25
2023-06-25T05:17:09.499Z,93064.28
2023-06-25T05:18:43.876Z,93074.84
2023-06-25T05:20:16.189Z,93072.72
2023-06-25T05:21:48.700Z,93084.56
2023-06-25T05:23:20.744Z,93088.75
2023-06-25T05:24:52.906Z,93090.16
2023-06-25T05:26:24.929Z,93090.59
2023-06-25T05:27:57.330Z,93087.94
2023-06-25T05:29:28.923Z,93093.09
2023-06-25T05:31:00.660Z,93088.94
2023-06-25T05:32:32.459Z,93085.19
2023-06-25T05:34:04.457Z,93078.38
2023-06-25T05:35:36.411Z,93087.06
2023-06-25T05:37:08.656Z,93079.34
2023-06-25T05:38:40.369Z,93080.31
2023-06-25T05:40:12.489Z,93073.41
2023-06-25T05:41:44.349Z,93075.06
2023-06-25T05:43:16.630Z,93072.06
2023-06-25T05:44:48.216Z,93065.22
2023-06-25T05:46:19.865Z,93076.19
2023-06-25T05:47:51.555Z,93068.81
2023-06-25T05:49:23.895Z,93069.25
2023-06-25T05:50:55.941Z,93067.81
2023-06-25T05:52:27.586Z,93064.34
2023-06-25T05:53:59.196Z,93058.56
2023-06-25T05:55:30.905Z,93062.19
2023-06-25T05:57:02.462Z,93058.38
2023-06-25T05:58:37.414Z,93060.47
2023-06-25T06:00:10.435Z,93063.75
2023-06-25T06:01:42.152Z,93059.16
2023-06-25T06:03:13.914Z,93052.19
2023-06-25T06:04:46.507Z,93050.38
2023-06-25T06:06:18.917Z,93047.22
2023-06-25T06:07:50.925Z,93045.69
2023-06-25T06:09:22.969Z,93044.56
2023-06-25T06:10:55.637Z,93043.47
2023-06-25T06:12:27.779Z,93040.34
2023-06-25T06:13:59.648Z,93027.50
2023-06-25T06:15:31.959Z,93026.03
2023-06-25T06:17:03.709Z,93037.88
2023-06-25T06:18:35.593Z,93034.06
2023-06-25T06:20:07.675Z,93031.03
2023-06-25T06:21:39.437Z,93029.22
2023-06-25T06:23:11.156Z,93034.41
2023-06-25T06:24:42.977Z,93036.88
2023-06-25T06:26:14.786Z,93030.72
2023-06-25T06:27:46.411Z,93030.03
2023-06-25T06:29:20.532Z,93033.25
2023-06-25T06:30:52.692Z,93027.88
2023-06-25T06:32:24.951Z,93027.16
2023-06-25T06:33:56.803Z,93025.25
2023-06-25T06:35:28.854Z,93024.81
2023-06-25T06:37:00.513Z,93016.59
2023-06-25T06:38:33.504Z,93020.53
2023-06-25T06:40:05.395Z,93030.34
2023-06-25T06:41:37.000Z,93017.03
2023-06-25T06:43:08.660Z,93022.53
2023-06-25T06:44:40.697Z,93016.31
2023-06-25T06:46:12.377Z,93010.13
2023-06-25T06:47:44.662Z,93012.63
2023-06-25T06:49:18.483Z,93010.38
2023-06-25T06:50:50.360Z,93004.59
2023-06-25T06:52:24.745Z,93010.94
2023-06-25T06:53:56.402Z,93003.97
2023-06-25T06:55:27.985Z,93002.50
2023-06-25T06:57:00.085Z,92995.94
2023-06-25T06:58:31.737Z,92997.94
2023-06-25T07:00:05.226Z,92994.44
2023-06-25T07:01:36.942Z,92990.91
2023-06-25T07:03:08.735Z,92992.13
2023-06-25T07:04:40.794Z,92988.97
2023-06-25T07:06:12.745Z,92988.19
2023-06-25T07:07:44.849Z,92984.25
2023-06-25T07:09:24.427Z,92988.19
2023-06-25T07:10:57.059Z,92989.38
2023-06-25T07:12:28.842Z,92984.25
2023-06-25T07:14:00.596Z,92987.38
2023-06-25T07:15:32.778Z,92994.84
2023-06-25T07:17:04.470Z,92994.47
2023-06-25T07:18:36.152Z,92991.34
2023-06-25T07:20:08.243Z,92992.13
2023-06-25T07:21:40.399Z,92988.22
2023-06-25T07:23:12.101Z,92994.50
2023-06-25T07:24:44.101Z,92992.91
2023-06-25T07:26:16.078Z,92990.56
2023-06-25T07:27:48.275Z,92988.59
2023-06-25T07:29:20.511Z,92986.22
2023-06-25T07:30:52.444Z,92981.03
2023-06-25T07:32:24.893Z,92988.16
2023-06-25T07:33:57.245Z,92990.47
2023-06-25T07:35:28.841Z,92985.34
2023-06-25T07:37:00.504Z,92992.81
2023-06-25T07:38:32.108Z,92989.22
2023-06-25T07:40:04.928Z,92993.94
2023-06-25T07:41:36.678Z,92992.72
2023-06-25T07:43:08.372Z,92991.53
2023-06-25T07:44:54.398Z,92988.03
2023-06-25T07:46:27.320Z,92994.72
2023-06-25T07:47:58.960Z,92986.47
2023-06-25T07:49:30.845Z,92988.50
2023-06-25T07:51:02.733Z,92985.38
2023-06-25T07:52:34.721Z,92994.41
2023-06-25T07:54:06.668Z,92989.69
2023-06-25T07:55:56.325Z,92997.91
2023-06-25T07:57:33.862Z,92997.13
2023-06-25T07:59:05.489Z,92997.13
2023-06-25T08:00:37.772Z,92995.94
2023-06-25T08:02:09.528Z,93000.69
2023-06-25T08:03:41.440Z,92999.53
2023-06-25T08:05:13.270Z,93001.06
2023-06-25T08:06:45.030Z,93003.00
2023-06-25T08:08:16.786Z,93003.38
2023-06-25T08:09:51.161Z,92994.31
2023-06-25T08:11:26.457Z,92992.72
2023-06-25T08:12:58.422Z,93004.88
2023-06-25T08:14:30.603Z,92999.69
2023-06-25T08:16:02.294Z,92998.94
2023-06-25T08:17:34.050Z,93005.97
2023-06-25T08:19:05.959Z,92996.13
2023-06-25T08:20:37.918Z,92998.88
2023-06-25T08:22:09.650Z,92998.44
2023-06-25T08:23:41.872Z,92999.59
2023-06-25T08:25:24.660Z,93003.13
2023-06-25T08:26:57.004Z,92996.41
2023-06-25T08:28:29.028Z,92997.19
2023-06-25T08:30:00.643Z,92995.59
2023-06-25T08:31:32.869Z,92995.97
2023-06-25T08:33:04.826Z,92999.88
2023-06-25T08:34:36.760Z,93006.56
2023-06-25T08:36:08.359Z,93002.66
2023-06-25T08:37:40.397Z,93000.66
2023-06-25T08:39:11.998Z,92999.53
2023-06-25T08:40:44.041Z,93006.22
2023-06-25T08:42:16.311Z,93001.13
2023-06-25T08:43:48.241Z,93007.75
2023-06-25T08:45:19.872Z,93000.25
2023-06-25T08:46:51.604Z,93004.19
2023-06-25T08:48:24.202Z,93012.09
2023-06-25T08:49:55.869Z,93008.13
2023-06-25T08:51:27.513Z,93011.66
2023-06-25T08:52:59.164Z,93015.13
2023-06-25T08:54:31.727Z,93003.28
2023-06-25T08:56:04.013Z,93004.78
2023-06-25T08:57:35.622Z,93013.81
2023-06-25T08:59:07.295Z,93008.63
2023-06-25T09:00:39.439Z,93000.31
2023-06-25T09:02:11.358Z,92999.19
2023-06-25T09:03:43.596Z,93008.59
2023-06-25T09:05:15.142Z,93004.56
2023-06-25T09:07:03.092Z,93006.88
2023-06-25T09:08:35.655Z,93001.34
2023-06-25T09:10:10.334Z,93005.25
2023-06-25T09:11:41.996Z,92992.97
2023-06-25T09:13:15.197Z,92998.06
2023-06-25T09:14:48.829Z,93001.13
2023-06-25T09:16:20.500Z,92988.47
2023-06-25T09:17:55.907Z,92993.22
2023-06-25T09:19:27.894Z,92987.38
2023-06-25T09:21:01.954Z,92987.03
2023-06-25T09:22:33.889Z,92983.41
2023-06-25T09:24:15.618Z,92982.22
2023-06-25T09:25:47.360Z,92981.50
2023-06-25T09:27:22.133Z,92976.28
2023-06-25T09:28:55.018Z,92972.66
2023-06-25T09:30:26.662Z,92965.50
2023-06-25T09:31:58.222Z,92966.63
2023-06-25T09:33:35.809Z,92967.75
2023-06-25T09:35:07.809Z,92963.72
2023-06-25T09:36:40.175Z,92962.53
2023-06-25T09:38:12.559Z,92959.38
2023-06-25T09:39:44.553Z,92955.44
2023-06-25T09:41:19.019Z,92957.78
2023-06-25T09:42:51.535Z,92962.47
2023-06-25T09:44:26.057Z,92958.81
2023-06-25T09:45:57.691Z,92961.19
2023-06-25T09:47:29.523Z,92959.31
2023-06-25T09:49:03.003Z,92952.28
2023-06-25T09:50:36.895Z,92955.03
2023-06-25T09:52:09.172Z,92957.25
2023-06-25T09:53:41.774Z,92963.13
2023-06-25T09:55:13.675Z,92965.06
2023-06-25T09:56:45.939Z,92965.47
2023-06-25T09:58:18.195Z,92966.25
2023-06-25T09:59:50.102Z,92967.53
2023-06-25T10:01:22.079Z,92969.50
2023-06-25T10:02:53.924Z,92966.75
2023-06-25T10:04:25.731Z,92961.59
2023-06-25T10:05:57.484Z,92965.84
2023-06-25T10:07:29.879Z,92960.69
2023-06-25T10:09:03.006Z,92961.84
2023-06-25T10:10:34.774Z,92957.72
2023-06-25T10:12:06.928Z,92951.09
2023-06-25T10:13:42.715Z,92959.84
2023-06-25T10:15:14.737Z,92953.63
2023-06-25T10:16:56.313Z,92950.50
2023-06-25T10:18:28.440Z,92956.50
2023-06-25T10:20:00.783Z,92949.47
2023-06-25T10:21:32.899Z,92948.28
2023-06-25T10:23:10.654Z,92948.81
2023-06-25T10:24:42.849Z,92944.22
2023-06-25T10:26:15.014Z,92948.13
2023-06-25T10:27:46.592Z,92939.03
2023-06-25T10:29:18.426Z,92940.56
2023-06-25T10:30:51.075Z,92936.81
2023-06-25T10:32:23.338Z,92939.00
2023-06-25T10:34:05.363Z,92930.88
2023-06-25T10:35:40.177Z,92937.09
2023-06-25T10:37:13.812Z,92932.81
2023-06-25T10:38:45.731Z,92923.72
2023-06-25T10:40:17.774Z,92924.56
2023-06-25T10:41:50.470Z,92923.50
2023-06-25T10:43:22.149Z,92928.84
2023-06-25T10:44:53.820Z,92921.44
2023-06-25T10:46:34.416Z,92914.66
2023-06-25T10:48:13.640Z,92919.19
2023-06-25T10:49:45.312Z,92919.66
2023-06-25T10:51:17.438Z,92919.44
2023-06-25T10:52:49.539Z,92911.25
2023-06-25T10:54:21.495Z,92908.25
2023-06-25T10:55:53.837Z,92901.75
2023-06-25T10:57:25.567Z,92906.31
2023-06-25T10:58:57.691Z,92912.72
2023-06-25T11:00:29.487Z,92903.97
2023-06-25T11:02:10.456Z,92907.47
2023-06-25T11:03:42.922Z,92898.63
2023-06-25T11:05:14.988Z,92893.69
2023-06-25T11:06:46.832Z,92887.72
2023-06-25T11:08:18.817Z,92890.81
2023-06-25T11:09:57.044Z,92889.34
2023-06-25T11:11:30.708Z,92899.34
2023-06-25T11:13:03.415Z,92894.94
2023-06-25T11:14:35.130Z,92892.25
2023-06-25T11:16:06.933Z,92890.91
2023-06-25T11:17:38.899Z,92885.00
2023-06-25T11:19:10.771Z,92886.16
2023-06-25T11:20:42.949Z,92886.09
2023-06-25T11:22:14.876Z,92881.22
2023-06-25T11:23:46.912Z,92874.97
2023-06-25T11:25:20.015Z,92866.53
2023-06-25T11:26:57.153Z,92869.47
2023-06-25T11:28:28.967Z,92873.16
2023-06-25T11:30:02.828Z,92870.50
2023-06-25T11:31:43.997Z,92870.94
2023-06-25T11:33:16.627Z,92869.84
2023-06-25T11:34:48.347Z,92865.28
2023-06-25T11:36:20.365Z,92866.94
2023-06-25T11:37:52.737Z,92859.63
2023-06-25T11:39:24.673Z,92862.31
2023-06-25T11:40:59.386Z,92859.88
2023-06-25T11:42:31.512Z,92862.22
2023-06-25T11:44:03.766Z,92867.19
2023-06-25T11:45:42.219Z,92869.72
2023-06-25T11:47:14.781Z,92870.72
2023-06-25T11:48:50.475Z,92862.13
2023-06-25T11:50:22.600Z,92864.25
2023-06-25T11:51:54.422Z,92867.47
2023-06-25T11:53:26.190Z,92870.19
2023-06-25T11:54:57.971Z,92870.41
2023-06-25T11:56:30.101Z,92874.13
2023-06-25T11:58:02.139Z,92867.47
2023-06-25T11:59:33.910Z,92869.63
2023-06-25T12:01:05.587Z,92872.06
2023-06-25T12:02:49.017Z,92867.97
2023-06-25T12:04:21.562Z,92865.19
2023-06-25T12:05:53.568Z,92865.19
2023-06-25T12:07:25.963Z,92864.75
2023-06-25T12:08:57.726Z,92863.97
2023-06-25T12:10:29.877Z,92871.44
2023-06-25T12:12:02.377Z,92863.88
2023-06-25T12:13:35.514Z,92858.06
2023-06-25T12:15:07.473Z,92860.72
2023-06-25T12:16:39.172Z,92859.88
2023-06-25T12:18:10.828Z,92855.78
2023-06-25T12:19:45.101Z,92850.78
2023-06-25T12:21:17.107Z,92849.13
2023-06-25T12:22:48.893Z,92847.91
2023-06-25T12:24:20.773Z,92847.34
2023-06-25T12:25:53.783Z,92832.03
2023-06-25T12:27:25.636Z,92842.47
2023-06-25T12:28:57.426Z,92844.13
2023-06-25T12:30:29.262Z,92837.59
2023-06-25T12:32:04.486Z,92835.25
2023-06-25T12:33:36.468Z,92834.34
2023-06-25T12:35:08.481Z,92831.47
2023-06-25T12:36:40.413Z,92828.34
2023-06-25T12:38:12.148Z,92829.25
2023-06-25T12:39:43.872Z,92824.16
2023-06-25T12:41:15.828Z,92820.72
2023-06-25T12:42:47.934Z,92820.84
2023-06-25T12:44:20.414Z,92822.88
2023-06-25T12:45:52.489Z,92822.28
2023-06-25T12:47:24.204Z,92818.09
2023-06-25T12:48:56.547Z,92811.16
2023-06-25T12:50:29.782Z,92813.50
2023-06-25T12:52:02.599Z,92822.63
2023-06-25T12:53:34.835Z,92819.31
2023-06-25T12:55:07.460Z,92818.75
2023-06-25T12:56:39.590Z,92814.38
2023-06-25T12:58:11.452Z,92815.81
2023-06-25T12:59:43.468Z,92813.19
2023-06-25T13:01:15.984Z,92809.72
2023-06-25T13:02:48.231Z,92812.28
2023-06-25T13:04:20.345Z,92809.50
2023-06-25T13:05:52.563Z,92808.06
2023-06-25T13:07:25.016Z,92802.41
2023-06-25T13:08:57.592Z,92791.78
2023-06-25T13:10:29.579Z,92793.78
2023-06-25T13:12:01.273Z,92790.69
2023-06-25T13:13:32.918Z,92798.66
2023-06-25T13:15:08.356Z,92793.25
2023-06-25T13:16:39.916Z,92791.25
2023-06-25T13:18:11.628Z,92798.81
2023-06-25T13:19:43.347Z,92794.22
2023-06-25T13:21:15.595Z,92787.09
2023-06-25T13:22:47.447Z,92788.44
2023-06-25T13:24:19.754Z,92779.41
2023-06-25T13:25:51.902Z,92771.97
2023-06-25T13:27:24.148Z,92786.41
2023-06-25T13:28:57.721Z,92784.59
2023-06-25T13:30:29.687Z,92779.19
2023-06-25T13:32:01.852Z,92782.47
2023-06-25T13:33:33.600Z,92776.44
2023-06-25T13:35:06.693Z,92777.75
2023-06-25T13:36:38.681Z,92766.50
2023-06-25T13:38:13.505Z,92775.28
2023-06-25T13:39:46.309Z,92770.59
2023-06-25T13:41:19.193Z,92778.69
2023-06-25T13:42:51.098Z,92780.25
2023-06-25T13:44:23.382Z,92779.56
2023-06-25T13:45:55.449Z,92784.63
2023-06-25T13:47:27.265Z,92779.25
2023-06-25T13:48:59.578Z,92785.22
2023-06-25T13:50:31.289Z,92781.00
2023-06-25T13:52:04.399Z,92779.78
2023-06-25T13:53:36.140Z,92788.41
2023-06-25T13:55:08.327Z,92781.16
2023-06-25T13:56:41.000Z,92784.47
2023-06-25T13:58:12.914Z,92786.91
2023-06-25T13:59:45.508Z,92788.53
2023-06-25T14:01:17.370Z,92791.44
2023-06-25T14:02:59.127Z,92795.91
2023-06-25T14:04:40.432Z,92796.19
2023-06-25T14:06:12.617Z,92790.72
2023-06-25T14:07:44.484Z,92791.50
2023-06-25T14:09:16.372Z,92789.78
2023-06-25T14:10:48.527Z,92784.50
2023-06-25T14:12:20.903Z,92779.19
2023-06-25T14:13:54.340Z,92776.13
2023-06-25T14:15:28.725Z,92775.00
2023-06-25T14:17:00.974Z,92777.78
2023-06-25T14:18:32.642Z,92780.13
2023-06-25T14:20:04.871Z,92774.75
2023-06-25T14:21:37.088Z,92774.69
2023-06-25T14:23:08.892Z,92778.91
2023-06-25T14:24:41.052Z,92778.66
2023-06-25T14:26:12.875Z,92775.97
2023-06-25T14:27:45.401Z,92770.94
2023-06-25T14:29:17.562Z,92769.38
2023-06-25T14:30:49.339Z,92776.81
2023-06-25T14:32:21.384Z,92776.31
2023-06-25T14:33:53.855Z,92778.41
2023-06-25T14:35:26.094Z,92783.84
2023-06-25T14:36:59.971Z,92779.25
2023-06-25T14:38:32.182Z,92781.69
2023-06-25T14:40:04.792Z,92783.25
2023-06-25T14:41:39.026Z,92778.72
2023-06-25T14:43:11.009Z,92780.59
2023-06-25T14:44:42.683Z,92768.72
2023-06-25T14:46:14.412Z,92783.28
2023-06-25T14:47:46.384Z,92775.84
2023-06-25T14:49:18.206Z,92773.41
2023-06-25T14:50:49.852Z,92776.25
2023-06-25T14:52:21.757Z,92777.47
2023-06-25T14:53:53.949Z,92770.75
2023-06-25T14:55:25.671Z,92778.41
2023-06-25T14:56:57.473Z,92774.06
2023-06-25T14:58:29.219Z,92778.13
2023-06-25T15:00:02.227Z,92779.59
2023-06-25T15:01:34.024Z,92784.53
2023-06-25T15:03:05.968Z,92792.13
2023-06-25T15:04:39.811Z,92789.97
2023-06-25T15:06:17.692Z,92794.38
